sensor_id;sensor_type;location;lat;lon;timestamp;temperature;humidity
3940;DHT22;1984;48.312;9.244;2022-12-11T00:01:32;-1.70;99.90
3940;DHT22;1984;48.312;9.244;2022-12-11T00:03:57;-1.60;99.90
3940;DHT22;1984;48.312;9.244;2022-12-11T00:06:23;-1.60;99.90
3940;DHT22;1984;48.312;9.244;2022-12-11T00:08:53;-1.70;99.90
3940;DHT22;1984;48.312;9.244;2022-12-11T00:11:20;-1.70;99.90
3940;DHT22;1984;48.312;9.244;2022-12-11T00:13:46;-1.60;99.90
3940;DHT22;1984;48.312;9.244;2022-12-11T00:16:11;-1.60;99.90
3940;DHT22;1984;48.312;9.244;2022-12-11T00:18:37;-1.60;99.90
3940;DHT22;1984;48.312;9.244;2022-12-11T00:21:04;-1.60;99.90
3940;DHT22;1984;48.312;9.244;2022-12-11T00:23:30;-1.50;99.90
3940;DHT22;1984;48.312;9.244;2022-12-11T00:25:56;-1.50;99.90
3940;DHT22;1984;48.312;9.244;2022-12-11T00:28:22;-1.50;99.90
3940;DHT22;1984;48.312;9.244;2022-12-11T00:30:48;-1.50;99.90
3940;DHT22;1984;48.312;9.244;2022-12-11T00:33:14;-1.50;99.90
3940;DHT22;1984;48.312;9.244;2022-12-11T00:35:42;-1.40;99.90
3940;DHT22;1984;48.312;9.244;2022-12-11T00:38:08;-1.40;99.90
3940;DHT22;1984;48.312;9.244;2022-12-11T00:40:38;-1.40;99.90
3940;DHT22;1984;48.312;9.244;2022-12-11T00:43:04;-1.50;99.90
3940;DHT22;1984;48.312;9.244;2022-12-11T00:45:29;-1.50;99.90
3940;DHT22;1984;48.312;9.244;2022-12-11T00:47:55;-1.50;99.90
3940;DHT22;1984;48.312;9.244;2022-12-11T00:50:20;-1.60;99.90
3940;DHT22;1984;48.312;9.244;2022-12-11T00:52:46;-1.60;99.90
3940;DHT22;1984;48.312;9.244;2022-12-11T00:55:11;-1.70;99.90
3940;DHT22;1984;48.312;9.244;2022-12-11T00:57:38;-1.70;99.90
3940;DHT22;1984;48.312;9.244;2022-12-11T01:00:04;-1.80;99.90
3940;DHT22;1984;48.312;9.244;2022-12-11T01:02:32;-1.90;99.90
3940;DHT22;1984;48.312;9.244;2022-12-11T01:04:57;-2.00;99.90
3940;DHT22;1984;48.312;9.244;2022-12-11T01:07:23;-2.10;99.90
3940;DHT22;1984;48.312;9.244;2022-12-11T01:09:49;-2.10;99.90
3940;DHT22;1984;48.312;9.244;2022-12-11T01:12:33;-2.10;99.90
3940;DHT22;1984;48.312;9.244;2022-12-11T01:14:59;-2.10;99.90
3940;DHT22;1984;48.312;9.244;2022-12-11T01:17:24;-2.10;99.90
3940;DHT22;1984;48.312;9.244;2022-12-11T01:19:53;-2.20;99.90
3940;DHT22;1984;48.312;9.244;2022-12-11T01:22:18;-2.20;99.90
3940;DHT22;1984;48.312;9.244;2022-12-11T01:24:44;-2.20;99.90
3940;DHT22;1984;48.312;9.244;2022-12-11T01:27:09;-2.10;99.90
3940;DHT22;1984;48.312;9.244;2022-12-11T01:29:35;-2.20;99.90
3940;DHT22;1984;48.312;9.244;2022-12-11T01:32:00;-2.20;99.90
3940;DHT22;1984;48.312;9.244;2022-12-11T01:34:28;-2.20;99.90
3940;DHT22;1984;48.312;9.244;2022-12-11T01:36:54;-2.30;99.90
3940;DHT22;1984;48.312;9.244;2022-12-11T01:39:19;-2.30;99.90
3940;DHT22;1984;48.312;9.244;2022-12-11T01:41:45;-2.40;99.90
3940;DHT22;1984;48.312;9.244;2022-12-11T01:46:40;-2.50;99.90
3940;DHT22;1984;48.312;9.244;2022-12-11T01:49:11;-2.60;99.90
3940;DHT22;1984;48.312;9.244;2022-12-11T01:51:52;-2.60;99.90
3940;DHT22;1984;48.312;9.244;2022-12-11T01:54:20;-2.50;99.90
3940;DHT22;1984;48.312;9.244;2022-12-11T01:56:49;-2.50;99.90
3940;DHT22;1984;48.312;9.244;2022-12-11T01:59:19;-2.50;99.90
3940;DHT22;1984;48.312;9.244;2022-12-11T02:01:58;-2.50;99.90
3940;DHT22;1984;48.312;9.244;2022-12-11T02:04:25;-2.50;99.90
3940;DHT22;1984;48.312;9.244;2022-12-11T02:06:52;-2.50;99.90
3940;DHT22;1984;48.312;9.244;2022-12-11T02:09:24;-2.60;99.90
3940;DHT22;1984;48.312;9.244;2022-12-11T02:15:08;-2.50;99.90
3940;DHT22;1984;48.312;9.244;2022-12-11T02:17:58;-2.40;99.90
3940;DHT22;1984;48.312;9.244;2022-12-11T02:20:36;-2.30;99.90
3940;DHT22;1984;48.312;9.244;2022-12-11T02:28:37;-2.30;99.90
3940;DHT22;1984;48.312;9.244;2022-12-11T02:31:12;-2.30;99.90
3940;DHT22;1984;48.312;9.244;2022-12-11T02:33:58;-2.20;99.90
3940;DHT22;1984;48.312;9.244;2022-12-11T02:36:28;-2.20;99.90
3940;DHT22;1984;48.312;9.244;2022-12-11T02:38:56;-2.20;99.90
3940;DHT22;1984;48.312;9.244;2022-12-11T02:41:24;-2.20;99.90
3940;DHT22;1984;48.312;9.244;2022-12-11T02:43:52;-2.20;99.90
3940;DHT22;1984;48.312;9.244;2022-12-11T02:46:19;-2.20;99.90
3940;DHT22;1984;48.312;9.244;2022-12-11T02:48:47;-2.20;99.90
3940;DHT22;1984;48.312;9.244;2022-12-11T02:51:16;-2.30;99.90
3940;DHT22;1984;48.312;9.244;2022-12-11T02:53:42;-2.30;99.90
3940;DHT22;1984;48.312;9.244;2022-12-11T02:56:17;-2.30;99.90
3940;DHT22;1984;48.312;9.244;2022-12-11T02:58:54;-2.30;99.90
3940;DHT22;1984;48.312;9.244;2022-12-11T03:01:20;-2.30;99.90
3940;DHT22;1984;48.312;9.244;2022-12-11T03:03:46;-2.30;99.90
3940;DHT22;1984;48.312;9.244;2022-12-11T03:06:17;-2.30;99.90
3940;DHT22;1984;48.312;9.244;2022-12-11T03:08:45;-2.30;99.90
3940;DHT22;1984;48.312;9.244;2022-12-11T03:11:11;-2.30;99.90
3940;DHT22;1984;48.312;9.244;2022-12-11T03:13:39;-2.30;99.90
3940;DHT22;1984;48.312;9.244;2022-12-11T03:18:59;-2.30;99.90
3940;DHT22;1984;48.312;9.244;2022-12-11T03:21:44;-2.30;99.90
3940;DHT22;1984;48.312;9.244;2022-12-11T03:24:19;-2.30;99.90
3940;DHT22;1984;48.312;9.244;2022-12-11T03:26:53;-2.30;99.90
3940;DHT22;1984;48.312;9.244;2022-12-11T03:29:24;-2.30;99.90
3940;DHT22;1984;48.312;9.244;2022-12-11T03:32:08;-2.30;99.90
3940;DHT22;1984;48.312;9.244;2022-12-11T03:34:45;-2.30;99.90
3940;DHT22;1984;48.312;9.244;2022-12-11T03:37:16;-2.30;99.90
3940;DHT22;1984;48.312;9.244;2022-12-11T03:39:45;-2.40;99.90
3940;DHT22;1984;48.312;9.244;2022-12-11T03:42:13;-2.40;99.90
3940;DHT22;1984;48.312;9.244;2022-12-11T03:44:40;-2.40;99.90
3940;DHT22;1984;48.312;9.244;2022-12-11T03:47:08;-2.40;99.90
3940;DHT22;1984;48.312;9.244;2022-12-11T03:49:38;-2.40;99.90
3940;DHT22;1984;48.312;9.244;2022-12-11T03:52:06;-2.40;99.90
3940;DHT22;1984;48.312;9.244;2022-12-11T03:54:34;-2.50;99.90
3940;DHT22;1984;48.312;9.244;2022-12-11T03:57:01;-2.50;99.90
3940;DHT22;1984;48.312;9.244;2022-12-11T03:59:28;-2.50;99.90
3940;DHT22;1984;48.312;9.244;2022-12-11T04:01:53;-2.40;99.90
3940;DHT22;1984;48.312;9.244;2022-12-11T04:04:19;-2.40;99.90
3940;DHT22;1984;48.312;9.244;2022-12-11T04:06:45;-2.40;99.90
3940;DHT22;1984;48.312;9.244;2022-12-11T04:09:10;-2.40;99.90
3940;DHT22;1984;48.312;9.244;2022-12-11T04:11:36;-2.40;99.90
3940;DHT22;1984;48.312;9.244;2022-12-11T04:14:08;-2.40;99.90
3940;DHT22;1984;48.312;9.244;2022-12-11T04:16:53;-2.40;99.90
3940;DHT22;1984;48.312;9.244;2022-12-11T04:19:19;-2.40;99.90
3940;DHT22;1984;48.312;9.244;2022-12-11T04:22:04;-2.50;99.90
3940;DHT22;1984;48.312;9.244;2022-12-11T04:24:48;-2.50;99.90
3940;DHT22;1984;48.312;9.244;2022-12-11T04:27:14;-2.50;99.90
3940;DHT22;1984;48.312;9.244;2022-12-11T04:30:01;-2.50;99.90
3940;DHT22;1984;48.312;9.244;2022-12-11T04:32:26;-2.50;99.90
3940;DHT22;1984;48.312;9.244;2022-12-11T04:34:52;-2.50;99.90
3940;DHT22;1984;48.312;9.244;2022-12-11T04:37:17;-2.50;99.90
3940;DHT22;1984;48.312;9.244;2022-12-11T04:39:43;-2.50;99.90
3940;DHT22;1984;48.312;9.244;2022-12-11T04:42:08;-2.50;99.90
3940;DHT22;1984;48.312;9.244;2022-12-11T04:44:34;-2.50;99.90
3940;DHT22;1984;48.312;9.244;2022-12-11T04:46:59;-2.60;99.90
3940;DHT22;1984;48.312;9.244;2022-12-11T04:49:25;-2.80;99.90
3940;DHT22;1984;48.312;9.244;2022-12-11T04:51:50;-2.90;99.90
3940;DHT22;1984;48.312;9.244;2022-12-11T04:54:16;-3.00;99.90
3940;DHT22;1984;48.312;9.244;2022-12-11T04:56:41;-3.10;99.90
3940;DHT22;1984;48.312;9.244;2022-12-11T04:59:07;-3.20;99.90
3940;DHT22;1984;48.312;9.244;2022-12-11T05:01:32;-3.20;99.90
3940;DHT22;1984;48.312;9.244;2022-12-11T05:03:58;-3.30;99.90
3940;DHT22;1984;48.312;9.244;2022-12-11T05:06:24;-3.40;99.90
3940;DHT22;1984;48.312;9.244;2022-12-11T05:08:49;-3.50;99.90
3940;DHT22;1984;48.312;9.244;2022-12-11T05:11:15;-3.50;99.90
3940;DHT22;1984;48.312;9.244;2022-12-11T05:13:42;-3.60;99.90
3940;DHT22;1984;48.312;9.244;2022-12-11T05:16:10;-3.60;99.90
3940;DHT22;1984;48.312;9.244;2022-12-11T05:18:35;-3.60;99.90
3940;DHT22;1984;48.312;9.244;2022-12-11T05:21:04;-3.70;99.90
3940;DHT22;1984;48.312;9.244;2022-12-11T05:23:30;-3.70;99.90
3940;DHT22;1984;48.312;9.244;2022-12-11T05:25:57;-3.80;99.90
3940;DHT22;1984;48.312;9.244;2022-12-11T05:28:24;-3.80;99.90
3940;DHT22;1984;48.312;9.244;2022-12-11T05:31:07;-3.90;99.90
3940;DHT22;1984;48.312;9.244;2022-12-11T05:33:33;-4.00;99.90
3940;DHT22;1984;48.312;9.244;2022-12-11T05:36:00;-4.10;99.90
3940;DHT22;1984;48.312;9.244;2022-12-11T05:38:25;-4.10;99.90
3940;DHT22;1984;48.312;9.244;2022-12-11T05:40:59;-4.10;99.90
3940;DHT22;1984;48.312;9.244;2022-12-11T05:43:26;-4.10;99.90
3940;DHT22;1984;48.312;9.244;2022-12-11T05:45:52;-4.10;99.90
3940;DHT22;1984;48.312;9.244;2022-12-11T05:48:18;-4.20;99.90
3940;DHT22;1984;48.312;9.244;2022-12-11T05:50:44;-4.30;99.90
3940;DHT22;1984;48.312;9.244;2022-12-11T05:53:10;-4.40;99.90
3940;DHT22;1984;48.312;9.244;2022-12-11T05:55:35;-4.50;99.90
3940;DHT22;1984;48.312;9.244;2022-12-11T05:58:01;-4.50;99.90
3940;DHT22;1984;48.312;9.244;2022-12-11T06:00:27;-4.50;99.90
3940;DHT22;1984;48.312;9.244;2022-12-11T06:02:52;-4.50;99.90
3940;DHT22;1984;48.312;9.244;2022-12-11T06:05:18;-4.50;99.90
3940;DHT22;1984;48.312;9.244;2022-12-11T06:07:43;-4.60;99.90
3940;DHT22;1984;48.312;9.244;2022-12-11T06:10:09;-4.60;99.90
3940;DHT22;1984;48.312;9.244;2022-12-11T06:12:35;-4.60;99.90
3940;DHT22;1984;48.312;9.244;2022-12-11T06:15:00;-4.70;99.90
3940;DHT22;1984;48.312;9.244;2022-12-11T06:17:26;-4.70;99.90
3940;DHT22;1984;48.312;9.244;2022-12-11T06:19:51;-4.80;99.90
3940;DHT22;1984;48.312;9.244;2022-12-11T06:22:17;-4.90;99.90
3940;DHT22;1984;48.312;9.244;2022-12-11T06:24:42;-5.00;99.90
3940;DHT22;1984;48.312;9.244;2022-12-11T06:27:08;-5.00;99.90
3940;DHT22;1984;48.312;9.244;2022-12-11T06:29:34;-5.10;99.90
3940;DHT22;1984;48.312;9.244;2022-12-11T06:32:00;-5.20;99.90
3940;DHT22;1984;48.312;9.244;2022-12-11T06:34:25;-5.20;99.90
3940;DHT22;1984;48.312;9.244;2022-12-11T06:36:51;-5.20;99.90
3940;DHT22;1984;48.312;9.244;2022-12-11T06:39:16;-5.20;99.90
3940;DHT22;1984;48.312;9.244;2022-12-11T06:41:42;-5.20;99.90
3940;DHT22;1984;48.312;9.244;2022-12-11T06:44:08;-5.20;99.90
3940;DHT22;1984;48.312;9.244;2022-12-11T06:46:33;-5.30;99.90
3940;DHT22;1984;48.312;9.244;2022-12-11T06:49:00;-5.20;99.90
3940;DHT22;1984;48.312;9.244;2022-12-11T06:51:25;-5.40;99.90
3940;DHT22;1984;48.312;9.244;2022-12-11T06:53:53;-5.50;99.90
3940;DHT22;1984;48.312;9.244;2022-12-11T06:56:19;-5.60;99.90
3940;DHT22;1984;48.312;9.244;2022-12-11T06:58:44;-5.60;99.90
3940;DHT22;1984;48.312;9.244;2022-12-11T07:01:22;-5.60;99.90
3940;DHT22;1984;48.312;9.244;2022-12-11T07:03:50;-5.60;99.90
3940;DHT22;1984;48.312;9.244;2022-12-11T07:06:16;-5.70;99.90
3940;DHT22;1984;48.312;9.244;2022-12-11T07:08:42;-5.60;99.90
3940;DHT22;1984;48.312;9.244;2022-12-11T07:11:10;-5.60;99.90
3940;DHT22;1984;48.312;9.244;2022-12-11T07:13:37;-5.50;99.90
3940;DHT22;1984;48.312;9.244;2022-12-11T07:16:03;-5.50;99.90
3940;DHT22;1984;48.312;9.244;2022-12-11T07:18:30;-5.50;99.90
3940;DHT22;1984;48.312;9.244;2022-12-11T07:20:59;-5.50;99.90
3940;DHT22;1984;48.312;9.244;2022-12-11T07:23:26;-5.50;99.90
3940;DHT22;1984;48.312;9.244;2022-12-11T07:25:52;-5.40;99.90
3940;DHT22;1984;48.312;9.244;2022-12-11T07:28:18;-5.60;99.90
3940;DHT22;1984;48.312;9.244;2022-12-11T07:30:43;-5.50;99.90
3940;DHT22;1984;48.312;9.244;2022-12-11T07:33:09;-5.40;99.90
3940;DHT22;1984;48.312;9.244;2022-12-11T07:35:35;-5.40;99.90
3940;DHT22;1984;48.312;9.244;2022-12-11T07:38:00;-5.40;99.90
3940;DHT22;1984;48.312;9.244;2022-12-11T07:40:26;-5.20;99.90
3940;DHT22;1984;48.312;9.244;2022-12-11T07:42:52;-5.10;99.90
3940;DHT22;1984;48.312;9.244;2022-12-11T07:45:17;-4.60;99.90
3940;DHT22;1984;48.312;9.244;2022-12-11T07:47:43;-3.70;99.90
3940;DHT22;1984;48.312;9.244;2022-12-11T07:50:09;-2.80;99.90
3940;DHT22;1984;48.312;9.244;2022-12-11T07:52:34;-2.00;99.90
3940;DHT22;1984;48.312;9.244;2022-12-11T07:55:00;-1.20;99.90
3940;DHT22;1984;48.312;9.244;2022-12-11T07:57:26;-0.50;99.90
3940;DHT22;1984;48.312;9.244;2022-12-11T07:59:52;0.30;99.90
3940;DHT22;1984;48.312;9.244;2022-12-11T08:02:18;1.00;99.90
3940;DHT22;1984;48.312;9.244;2022-12-11T08:04:43;1.70;99.90
3940;DHT22;1984;48.312;9.244;2022-12-11T08:07:09;2.30;99.90
3940;DHT22;1984;48.312;9.244;2022-12-11T08:09:34;3.00;99.90
3940;DHT22;1984;48.312;9.244;2022-12-11T08:12:00;3.80;99.90
3940;DHT22;1984;48.312;9.244;2022-12-11T08:14:26;4.50;99.90
3940;DHT22;1984;48.312;9.244;2022-12-11T08:16:51;5.00;99.90
3940;DHT22;1984;48.312;9.244;2022-12-11T08:19:17;5.10;99.90
3940;DHT22;1984;48.312;9.244;2022-12-11T08:21:42;5.20;99.90
3940;DHT22;1984;48.312;9.244;2022-12-11T08:24:09;5.20;99.90
3940;DHT22;1984;48.312;9.244;2022-12-11T08:26:34;5.20;99.90
3940;DHT22;1984;48.312;9.244;2022-12-11T08:29:00;5.20;99.90
3940;DHT22;1984;48.312;9.244;2022-12-11T08:31:27;5.70;99.90
3940;DHT22;1984;48.312;9.244;2022-12-11T08:33:55;6.00;99.90
3940;DHT22;1984;48.312;9.244;2022-12-11T08:36:21;6.30;99.90
3940;DHT22;1984;48.312;9.244;2022-12-11T08:38:48;6.40;99.60
3940;DHT22;1984;48.312;9.244;2022-12-11T08:41:16;6.40;99.30
3940;DHT22;1984;48.312;9.244;2022-12-11T08:43:43;6.40;99.30
3940;DHT22;1984;48.312;9.244;2022-12-11T08:46:10;6.50;99.00
3940;DHT22;1984;48.312;9.244;2022-12-11T08:48:37;6.60;99.00
3940;DHT22;1984;48.312;9.244;2022-12-11T08:51:05;6.90;99.00
3940;DHT22;1984;48.312;9.244;2022-12-11T08:53:32;7.10;98.30
3940;DHT22;1984;48.312;9.244;2022-12-11T08:56:13;7.10;98.30
3940;DHT22;1984;48.312;9.244;2022-12-11T08:58:39;7.20;98.00
3940;DHT22;1984;48.312;9.244;2022-12-11T09:01:10;7.30;97.80
3940;DHT22;1984;48.312;9.244;2022-12-11T09:03:36;7.50;97.40
3940;DHT22;1984;48.312;9.244;2022-12-11T09:06:04;7.80;97.20
3940;DHT22;1984;48.312;9.244;2022-12-11T09:08:30;8.20;97.20
3940;DHT22;1984;48.312;9.244;2022-12-11T09:10:55;8.60;96.80
3940;DHT22;1984;48.312;9.244;2022-12-11T09:13:26;8.90;96.30
3940;DHT22;1984;48.312;9.244;2022-12-11T09:15:51;9.20;95.80
3940;DHT22;1984;48.312;9.244;2022-12-11T09:18:17;9.50;95.00
3940;DHT22;1984;48.312;9.244;2022-12-11T09:20:42;9.90;94.90
3940;DHT22;1984;48.312;9.244;2022-12-11T09:23:08;10.40;94.10
3940;DHT22;1984;48.312;9.244;2022-12-11T09:25:33;10.60;93.70
3940;DHT22;1984;48.312;9.244;2022-12-11T09:27:59;10.80;93.00
3940;DHT22;1984;48.312;9.244;2022-12-11T09:30:25;11.00;92.60
3940;DHT22;1984;48.312;9.244;2022-12-11T09:32:51;11.00;92.40
3940;DHT22;1984;48.312;9.244;2022-12-11T09:35:17;11.20;91.90
3940;DHT22;1984;48.312;9.244;2022-12-11T09:37:42;11.50;91.80
3940;DHT22;1984;48.312;9.244;2022-12-11T09:40:10;11.70;91.30
3940;DHT22;1984;48.312;9.244;2022-12-11T09:42:53;10.50;91.20
3940;DHT22;1984;48.312;9.244;2022-12-11T09:45:22;8.60;92.80
3940;DHT22;1984;48.312;9.244;2022-12-11T09:47:53;6.60;95.20
3940;DHT22;1984;48.312;9.244;2022-12-11T09:50:31;6.10;97.40
3940;DHT22;1984;48.312;9.244;2022-12-11T10:01:54;8.50;94.80
3940;DHT22;1984;48.312;9.244;2022-12-11T10:04:39;7.60;95.60
3940;DHT22;1984;48.312;9.244;2022-12-11T10:07:35;6.40;96.50
3940;DHT22;1984;48.312;9.244;2022-12-11T10:13:29;3.90;99.90
3940;DHT22;1984;48.312;9.244;2022-12-11T10:16:25;3.20;99.90
3940;DHT22;1984;48.312;9.244;2022-12-11T10:18:44;2.80;99.90
3940;DHT22;1984;48.312;9.244;2022-12-11T10:21:11;2.40;99.90
3940;DHT22;1984;48.312;9.244;2022-12-11T10:23:55;2.20;99.90
3940;DHT22;1984;48.312;9.244;2022-12-11T10:26:22;2.10;99.90
3940;DHT22;1984;48.312;9.244;2022-12-11T10:28:48;2.00;99.90
3940;DHT22;1984;48.312;9.244;2022-12-11T10:34:07;2.30;99.90
3940;DHT22;1984;48.312;9.244;2022-12-11T10:36:37;2.30;99.90
3940;DHT22;1984;48.312;9.244;2022-12-11T10:39:13;2.30;99.90
3940;DHT22;1984;48.312;9.244;2022-12-11T10:41:42;2.20;99.90
3940;DHT22;1984;48.312;9.244;2022-12-11T10:44:14;2.30;99.90
3940;DHT22;1984;48.312;9.244;2022-12-11T10:46:40;2.30;99.90
3940;DHT22;1984;48.312;9.244;2022-12-11T10:49:28;2.50;99.90
3940;DHT22;1984;48.312;9.244;2022-12-11T10:51:56;2.60;99.90
3940;DHT22;1984;48.312;9.244;2022-12-11T10:54:37;2.70;99.90
3940;DHT22;1984;48.312;9.244;2022-12-11T10:57:05;2.60;99.90
3940;DHT22;1984;48.312;9.244;2022-12-11T10:59:48;2.60;99.90
3940;DHT22;1984;48.312;9.244;2022-12-11T11:04:45;2.40;99.90
3940;DHT22;1984;48.312;9.244;2022-12-11T11:07:20;2.40;99.90
3940;DHT22;1984;48.312;9.244;2022-12-11T11:09:46;2.40;99.90
3940;DHT22;1984;48.312;9.244;2022-12-11T11:14:56;2.60;99.90
3940;DHT22;1984;48.312;9.244;2022-12-11T11:17:22;2.60;99.90
3940;DHT22;1984;48.312;9.244;2022-12-11T11:19:48;2.70;99.90
3940;DHT22;1984;48.312;9.244;2022-12-11T11:22:16;3.00;99.90
3940;DHT22;1984;48.312;9.244;2022-12-11T11:24:54;3.30;99.90
3940;DHT22;1984;48.312;9.244;2022-12-11T11:27:51;3.50;99.90
3940;DHT22;1984;48.312;9.244;2022-12-11T11:30:20;3.70;99.90
3940;DHT22;1984;48.312;9.244;2022-12-11T11:32:46;3.70;99.90
3940;DHT22;1984;48.312;9.244;2022-12-11T11:37:40;4.10;99.90
3940;DHT22;1984;48.312;9.244;2022-12-11T11:40:14;4.40;99.90
3940;DHT22;1984;48.312;9.244;2022-12-11T11:45:53;4.50;99.90
3940;DHT22;1984;48.312;9.244;2022-12-11T11:48:29;4.20;99.90
3940;DHT22;1984;48.312;9.244;2022-12-11T11:50:57;3.70;99.90
3940;DHT22;1984;48.312;9.244;2022-12-11T11:53:33;3.40;99.90
3940;DHT22;1984;48.312;9.244;2022-12-11T11:56:18;3.10;99.90
3940;DHT22;1984;48.312;9.244;2022-12-11T12:01:29;2.90;99.90
3940;DHT22;1984;48.312;9.244;2022-12-11T12:03:55;2.70;99.90
3940;DHT22;1984;48.312;9.244;2022-12-11T12:15:24;2.40;99.90
3940;DHT22;1984;48.312;9.244;2022-12-11T12:18:00;2.20;99.90
3940;DHT22;1984;48.312;9.244;2022-12-11T12:39:56;2.20;99.90
3940;DHT22;1984;48.312;9.244;2022-12-11T12:42:50;2.20;99.90
3940;DHT22;1984;48.312;9.244;2022-12-11T12:47:58;2.00;99.90
3940;DHT22;1984;48.312;9.244;2022-12-11T12:50:25;1.90;99.90
3940;DHT22;1984;48.312;9.244;2022-12-11T12:52:54;1.80;99.90
3940;DHT22;1984;48.312;9.244;2022-12-11T12:55:25;1.70;99.90
3940;DHT22;1984;48.312;9.244;2022-12-11T12:57:56;1.60;99.90
3940;DHT22;1984;48.312;9.244;2022-12-11T13:00:33;1.60;99.90
3940;DHT22;1984;48.312;9.244;2022-12-11T13:03:18;1.60;99.90
3940;DHT22;1984;48.312;9.244;2022-12-11T13:06:00;1.50;99.90
3940;DHT22;1984;48.312;9.244;2022-12-11T13:08:28;1.40;99.90
3940;DHT22;1984;48.312;9.244;2022-12-11T13:11:16;1.40;99.90
3940;DHT22;1984;48.312;9.244;2022-12-11T13:13:45;1.20;99.90
3940;DHT22;1984;48.312;9.244;2022-12-11T13:18:41;1.00;99.90
3940;DHT22;1984;48.312;9.244;2022-12-11T13:23:51;0.80;99.90
3940;DHT22;1984;48.312;9.244;2022-12-11T13:26:31;0.80;99.90
3940;DHT22;1984;48.312;9.244;2022-12-11T13:28:58;0.80;99.90
3940;DHT22;1984;48.312;9.244;2022-12-11T13:31:37;0.70;99.90
3940;DHT22;1984;48.312;9.244;2022-12-11T13:34:17;0.70;99.90
3940;DHT22;1984;48.312;9.244;2022-12-11T13:36:47;0.60;99.90
3940;DHT22;1984;48.312;9.244;2022-12-11T13:39:26;0.60;99.90
3940;DHT22;1984;48.312;9.244;2022-12-11T13:42:07;0.50;99.90
3940;DHT22;1984;48.312;9.244;2022-12-11T13:44:46;0.50;99.90
3940;DHT22;1984;48.312;9.244;2022-12-11T13:47:14;0.30;99.90
3940;DHT22;1984;48.312;9.244;2022-12-11T13:49:42;0.20;99.90
3940;DHT22;1984;48.312;9.244;2022-12-11T13:52:35;0.20;99.90
3940;DHT22;1984;48.312;9.244;2022-12-11T13:55:00;0.20;99.90
3940;DHT22;1984;48.312;9.244;2022-12-11T13:57:26;0.20;99.90
3940;DHT22;1984;48.312;9.244;2022-12-11T13:59:56;0.10;99.90
3940;DHT22;1984;48.312;9.244;2022-12-11T14:02:37;0.00;99.90
3940;DHT22;1984;48.312;9.244;2022-12-11T14:05:07;0.00;99.90
3940;DHT22;1984;48.312;9.244;2022-12-11T14:07:37;-0.10;99.90
3940;DHT22;1984;48.312;9.244;2022-12-11T14:10:13;-0.10;99.90
3940;DHT22;1984;48.312;9.244;2022-12-11T14:13:21;-0.10;99.90
3940;DHT22;1984;48.312;9.244;2022-12-11T14:15:48;-0.10;99.90
3940;DHT22;1984;48.312;9.244;2022-12-11T14:18:19;0.00;99.90
3940;DHT22;1984;48.312;9.244;2022-12-11T14:20:56;-0.10;99.90
3940;DHT22;1984;48.312;9.244;2022-12-11T14:23:27;0.00;99.90
3940;DHT22;1984;48.312;9.244;2022-12-11T14:25:59;0.00;99.90
3940;DHT22;1984;48.312;9.244;2022-12-11T14:28:27;0.10;99.90
3940;DHT22;1984;48.312;9.244;2022-12-11T14:30:56;0.00;99.90
3940;DHT22;1984;48.312;9.244;2022-12-11T14:33:31;0.10;99.90
3940;DHT22;1984;48.312;9.244;2022-12-11T14:35:58;0.20;99.90
3940;DHT22;1984;48.312;9.244;2022-12-11T14:38:31;0.30;99.90
3940;DHT22;1984;48.312;9.244;2022-12-11T14:41:02;0.30;99.90
3940;DHT22;1984;48.312;9.244;2022-12-11T14:43:32;0.40;99.90
3940;DHT22;1984;48.312;9.244;2022-12-11T14:46:08;0.40;99.90
3940;DHT22;1984;48.312;9.244;2022-12-11T14:48:41;0.40;99.90
3940;DHT22;1984;48.312;9.244;2022-12-11T14:51:13;0.40;99.90
3940;DHT22;1984;48.312;9.244;2022-12-11T14:53:43;0.40;99.90
3940;DHT22;1984;48.312;9.244;2022-12-11T14:56:17;0.30;99.90
3940;DHT22;1984;48.312;9.244;2022-12-11T14:58:52;0.10;99.90
3940;DHT22;1984;48.312;9.244;2022-12-11T15:01:24;0.00;99.90
3940;DHT22;1984;48.312;9.244;2022-12-11T15:06:46;-0.10;99.90
3940;DHT22;1984;48.312;9.244;2022-12-11T15:09:38;-0.10;99.90
3940;DHT22;1984;48.312;9.244;2022-12-11T15:12:13;-0.10;99.90
3940;DHT22;1984;48.312;9.244;2022-12-11T15:15:01;-0.20;99.90
3940;DHT22;1984;48.312;9.244;2022-12-11T15:17:28;-0.30;99.90
3940;DHT22;1984;48.312;9.244;2022-12-11T15:20:08;-0.40;99.90
3940;DHT22;1984;48.312;9.244;2022-12-11T15:22:35;-0.40;99.90
3940;DHT22;1984;48.312;9.244;2022-12-11T15:25:02;-0.50;99.90
3940;DHT22;1984;48.312;9.244;2022-12-11T15:27:36;-0.50;99.90
3940;DHT22;1984;48.312;9.244;2022-12-11T15:35:36;-0.60;99.90
3940;DHT22;1984;48.312;9.244;2022-12-11T15:38:02;-0.70;99.90
3940;DHT22;1984;48.312;9.244;2022-12-11T15:40:28;-0.70;99.90
3940;DHT22;1984;48.312;9.244;2022-12-11T15:42:54;-0.70;99.90
3940;DHT22;1984;48.312;9.244;2022-12-11T15:45:22;-0.70;99.90
3940;DHT22;1984;48.312;9.244;2022-12-11T15:47:49;-0.60;99.90
3940;DHT22;1984;48.312;9.244;2022-12-11T15:50:18;-0.60;99.90
3940;DHT22;1984;48.312;9.244;2022-12-11T15:52:45;-0.70;99.90
3940;DHT22;1984;48.312;9.244;2022-12-11T15:55:13;-0.70;99.90
3940;DHT22;1984;48.312;9.244;2022-12-11T15:57:44;-0.70;99.90
3940;DHT22;1984;48.312;9.244;2022-12-11T16:00:14;-0.70;99.90
3940;DHT22;1984;48.312;9.244;2022-12-11T16:02:40;-0.80;99.90
3940;DHT22;1984;48.312;9.244;2022-12-11T16:05:05;-0.80;99.90
3940;DHT22;1984;48.312;9.244;2022-12-11T16:07:31;-0.80;99.90
3940;DHT22;1984;48.312;9.244;2022-12-11T16:09:57;-0.90;99.90
3940;DHT22;1984;48.312;9.244;2022-12-11T16:12:23;-0.90;99.90
3940;DHT22;1984;48.312;9.244;2022-12-11T16:14:48;-0.90;99.90
3940;DHT22;1984;48.312;9.244;2022-12-11T16:17:14;-0.90;99.90
3940;DHT22;1984;48.312;9.244;2022-12-11T16:19:41;-0.90;99.90
3940;DHT22;1984;48.312;9.244;2022-12-11T16:22:07;-0.90;99.90
3940;DHT22;1984;48.312;9.244;2022-12-11T16:24:34;-0.90;99.90
3940;DHT22;1984;48.312;9.244;2022-12-11T16:26:59;-1.00;99.90
3940;DHT22;1984;48.312;9.244;2022-12-11T16:29:25;-1.00;99.90
3940;DHT22;1984;48.312;9.244;2022-12-11T16:31:51;-1.00;99.90
3940;DHT22;1984;48.312;9.244;2022-12-11T16:34:16;-1.00;99.90
3940;DHT22;1984;48.312;9.244;2022-12-11T16:36:42;-1.00;99.90
3940;DHT22;1984;48.312;9.244;2022-12-11T16:39:09;-1.00;99.90
3940;DHT22;1984;48.312;9.244;2022-12-11T16:41:35;-1.00;99.90
3940;DHT22;1984;48.312;9.244;2022-12-11T16:44:01;-1.00;99.90
3940;DHT22;1984;48.312;9.244;2022-12-11T16:46:27;-1.10;99.90
3940;DHT22;1984;48.312;9.244;2022-12-11T16:48:53;-1.10;99.90
3940;DHT22;1984;48.312;9.244;2022-12-11T16:51:19;-1.10;99.90
3940;DHT22;1984;48.312;9.244;2022-12-11T16:53:45;-1.10;99.90
3940;DHT22;1984;48.312;9.244;2022-12-11T16:56:11;-1.20;99.90
3940;DHT22;1984;48.312;9.244;2022-12-11T16:58:37;-1.20;99.90
3940;DHT22;1984;48.312;9.244;2022-12-11T17:01:10;-1.30;99.90
3940;DHT22;1984;48.312;9.244;2022-12-11T17:03:39;-1.40;99.90
3940;DHT22;1984;48.312;9.244;2022-12-11T17:06:10;-1.50;99.90
3940;DHT22;1984;48.312;9.244;2022-12-11T17:08:36;-1.60;99.90
3940;DHT22;1984;48.312;9.244;2022-12-11T17:11:07;-1.60;99.90
3940;DHT22;1984;48.312;9.244;2022-12-11T17:13:33;-1.70;99.90
3940;DHT22;1984;48.312;9.244;2022-12-11T17:15:58;-1.70;99.90
3940;DHT22;1984;48.312;9.244;2022-12-11T17:18:24;-1.80;99.90
3940;DHT22;1984;48.312;9.244;2022-12-11T17:20:50;-1.80;99.90
3940;DHT22;1984;48.312;9.244;2022-12-11T17:23:15;-1.90;99.90
3940;DHT22;1984;48.312;9.244;2022-12-11T17:25:42;-1.90;99.90
3940;DHT22;1984;48.312;9.244;2022-12-11T17:28:09;-1.90;99.90
3940;DHT22;1984;48.312;9.244;2022-12-11T17:30:39;-2.00;99.90
3940;DHT22;1984;48.312;9.244;2022-12-11T17:33:05;-2.00;99.90
3940;DHT22;1984;48.312;9.244;2022-12-11T17:35:31;-2.10;99.90
3940;DHT22;1984;48.312;9.244;2022-12-11T17:37:57;-2.10;99.90
3940;DHT22;1984;48.312;9.244;2022-12-11T17:40:22;-2.10;99.90
3940;DHT22;1984;48.312;9.244;2022-12-11T17:42:48;-2.20;99.90
3940;DHT22;1984;48.312;9.244;2022-12-11T17:45:14;-2.10;99.90
3940;DHT22;1984;48.312;9.244;2022-12-11T17:47:39;-2.10;99.90